Air Quality Table

TIMESTAMP NO2 SO2 O3 PM10 PM2.5 TEMP HUM AIRPRES WS WD NO
2022-11-30 11:00 61.63 µg/m3 0.4 µg/m3 19.81 µg/m3 13.93 µg/m3 µg/m3 12.72 °C 93.03 % 1,002.67 mbar 1.27 m/s 335.66 Deg 15.26 µg/m3
2022-11-30 10:00 44.43 µg/m3 0.27 µg/m3 35.62 µg/m3 10.18 µg/m3 µg/m3 12.73 °C 91.85 % 1,002.49 mbar 1.65 m/s 282.32 Deg 8.15 µg/m3
2022-11-30 09:00 60.35 µg/m3 0.39 µg/m3 24.3 µg/m3 7.36 µg/m3 µg/m3 12.29 °C 96.38 % 1,002.27 mbar 2.03 m/s 269.17 Deg 18.25 µg/m3
2022-11-30 08:00 75.04 µg/m3 0.54 µg/m3 9.76 µg/m3 7.9 µg/m3 2.91 µg/m3 11.92 °C 99.88 % 1,002.03 mbar 0.86 m/s 282.51 Deg 40.57 µg/m3
2022-11-30 07:00 61.6 µg/m3 0.33 µg/m3 19.01 µg/m3 7.23 µg/m3 2.93 µg/m3 11.96 °C 99.82 % 1,001.75 mbar 0.9 m/s 295.44 Deg 23.34 µg/m3
2022-11-30 06:00 18.88 µg/m3 0.11 µg/m3 63.11 µg/m3 6.22 µg/m3 2.98 µg/m3 11.39 °C 95.58 % 1,001.65 mbar 1.8 m/s 340.45 Deg 1.43 µg/m3
2022-11-30 05:00 11.38 µg/m3 0.14 µg/m3 52.67 µg/m3 7.54 µg/m3 3.07 µg/m3 12.43 °C 98.05 % 1,001.03 mbar 2.11 m/s 293 Deg 0.92 µg/m3
2022-11-30 04:00 20.39 µg/m3 0.3 µg/m3 39.23 µg/m3 6.59 µg/m3 3.27 µg/m3 12.66 °C 99.51 % 1,000.90 mbar 1.48 m/s 320.35 Deg 0.29 µg/m3
2022-11-30 03:00 23.7 µg/m3 0.08 µg/m3 39.48 µg/m3 6.28 µg/m3 3.65 µg/m3 12.82 °C 99.98 % 1,000.90 mbar 1.3 m/s 331.38 Deg 0.34 µg/m3
2022-11-30 02:00 11.07 µg/m3 0.05 µg/m3 54.99 µg/m3 7.64 µg/m3 4.43 µg/m3 12.53 °C 99.9 % 1,000.91 mbar 1.66 m/s 326.18 Deg 0.12 µg/m3
2022-11-30 01:00 6.32 µg/m3 0.08 µg/m3 66.15 µg/m3 9.88 µg/m3 5.98 µg/m3 12.42 °C 99.9 % 1,001.22 mbar 1.27 m/s 286.43 Deg -0.05 µg/m3
2022-11-30 00:00 6.67 µg/m3 0.09 µg/m3 74.12 µg/m3 15.38 µg/m3 7.28 µg/m3 12.08 °C 99.76 % 1,001.58 mbar 2.08 m/s 297.6 Deg 0.03 µg/m3
2022-11-29 23:00 9.27 µg/m3 0.04 µg/m3 74.82 µg/m3 11.8 µg/m3 7.1 µg/m3 12.7 °C 90.22 % 1,001.38 mbar 2.2 m/s 302.97 Deg 0.16 µg/m3
2022-11-29 22:00 22.7 µg/m3 0.1 µg/m3 52.95 µg/m3 9.24 µg/m3 6.84 µg/m3 13.9 °C 94.64 % 1,001.19 mbar 1.5 m/s 333.9 Deg 1.01 µg/m3
2022-11-29 21:00 28.89 µg/m3 0.1 µg/m3 47.84 µg/m3 13.63 µg/m3 6.23 µg/m3 14.32 °C 90.66 % 1,000.92 mbar 1.18 m/s 37.63 Deg 1.9 µg/m3
2022-11-29 20:00 13.17 µg/m3 0.07 µg/m3 68.35 µg/m3 12.55 µg/m3 6.28 µg/m3 14.11 °C 93.59 % 1,000.68 mbar 1.29 m/s 179.35 Deg 0.39 µg/m3
2022-11-29 19:00 8.9 µg/m3 0.05 µg/m3 76.45 µg/m3 12.39 µg/m3 5.54 µg/m3 13.59 °C 92.73 % 1,000.64 mbar 2.51 m/s 94.13 Deg 0.23 µg/m3
2022-11-29 18:00 42.92 µg/m3 0.1 µg/m3 38.82 µg/m3 8.49 µg/m3 3.99 µg/m3 14.37 °C 92.37 % 1,000.46 mbar 1.71 m/s 292.93 Deg 5.55 µg/m3
2022-11-29 17:00 4.64 µg/m3 0.02 µg/m3 75.18 µg/m3 7.95 µg/m3 4.29 µg/m3 14.73 °C 93.88 % 1,000.04 mbar 2.16 m/s 153.82 Deg -0.08 µg/m3
2022-11-29 16:00 2.12 µg/m3 0.02 µg/m3 80.1 µg/m3 7.93 µg/m3 4.98 µg/m3 14.94 °C 94.89 % 999.94 mbar 4.34 m/s 163.13 Deg -0.09 µg/m3
2022-11-29 15:00 2.76 µg/m3 0.03 µg/m3 80.44 µg/m3 7.9 µg/m3 4.4 µg/m3 15.22 °C 91.51 % 1,000.00 mbar 4.3 m/s 124.5 Deg -0.02 µg/m3
2022-11-29 14:00 3.02 µg/m3 0.03 µg/m3 80.58 µg/m3 9.03 µg/m3 4.71 µg/m3 15.12 °C 90.73 % 1,000.32 mbar 5.12 m/s 118.77 Deg -0 µg/m3

It is to be noted that the data is provisional and subject to quality assurance procedures. For validated data kindly refer your request to contact.air@era.org.mt